createdAt,value
2018-09-26T00:02:43.052Z,8.20
2018-09-26T00:07:46.300Z,6.27
2018-09-26T00:12:49.290Z,4.47
2018-09-26T00:17:52.555Z,3.90
2018-09-26T00:22:55.873Z,4.33
2018-09-26T00:27:58.869Z,7.77
2018-09-26T00:33:02.168Z,4.70
2018-09-26T00:38:05.439Z,6.43
2018-09-26T00:43:08.418Z,5.70
2018-09-26T00:48:11.743Z,7.13
2018-09-26T00:53:15.007Z,4.43
2018-09-26T00:58:18.291Z,5.93
2018-09-26T01:03:21.587Z,7.80
2018-09-26T01:08:24.854Z,5.73
2018-09-26T01:13:28.109Z,6.53
2018-09-26T01:18:31.367Z,4.27
2018-09-26T01:23:34.615Z,7.07
2018-09-26T01:28:37.862Z,5.10
2018-09-26T01:33:41.144Z,7.33
2018-09-26T01:38:44.425Z,2.73
2018-09-26T01:43:47.732Z,5.20
2018-09-26T01:48:50.984Z,6.27
2018-09-26T01:53:54.283Z,6.67
2018-09-26T01:58:57.600Z,5.03
2018-09-26T02:04:00.941Z,7.37
2018-09-26T02:09:06.648Z,5.67
2018-09-26T02:14:09.930Z,4.63
2018-09-26T02:19:13.203Z,6.03
2018-09-26T02:24:16.464Z,9.33
2018-09-26T02:29:19.758Z,4.60
2018-09-26T02:34:22.795Z,4.10
2018-09-26T02:39:26.124Z,4.40
2018-09-26T02:44:29.807Z,4.13
2018-09-26T02:49:33.052Z,6.40
2018-09-26T02:54:36.440Z,4.77
2018-09-26T02:59:39.455Z,5.57
2018-09-26T03:04:42.876Z,7.83
2018-09-26T03:09:46.161Z,5.43
2018-09-26T03:14:49.447Z,3.83
2018-09-26T03:19:52.753Z,6.23
2018-09-26T03:24:56.045Z,3.73
2018-09-26T03:29:59.088Z,4.67
2018-09-26T03:35:02.401Z,5.77
2018-09-26T03:40:05.771Z,3.83
2018-09-26T03:45:08.732Z,5.33
2018-09-26T03:50:12.025Z,5.30
2018-09-26T03:55:15.312Z,5.23
2018-09-26T04:05:28.156Z,8.53
2018-09-26T04:10:31.204Z,4.10
2018-09-26T04:15:38.539Z,6.07
2018-09-26T04:20:41.965Z,4.67
2018-09-26T04:25:45.956Z,7.07
2018-09-26T04:30:49.241Z,3.47
2018-09-26T04:35:52.505Z,4.00
2018-09-26T04:40:55.566Z,5.47
2018-09-26T04:50:57.205Z,4.60
2018-09-26T04:56:01.043Z,6.27
2018-09-26T05:01:04.959Z,3.73
2018-09-26T05:06:08.796Z,7.57
2018-09-26T05:11:12.664Z,5.70
2018-09-26T05:16:16.527Z,8.07
2018-09-26T05:21:20.157Z,7.73
2018-09-26T05:26:23.923Z,9.43
2018-09-26T05:31:27.787Z,8.50
2018-09-26T05:36:31.917Z,10.10
2018-09-26T05:41:36.313Z,8.83
2018-09-26T05:46:40.147Z,7.03
2018-09-26T05:51:44.015Z,4.20
2018-09-26T05:56:47.909Z,5.07
2018-09-26T06:01:54.210Z,5.77
2018-09-26T06:06:58.056Z,6.90
2018-09-26T06:12:01.923Z,5.20
2018-09-26T06:17:05.859Z,4.87
2018-09-26T06:22:09.726Z,4.27
2018-09-26T06:27:13.596Z,3.23
2018-09-26T06:32:17.465Z,6.43
2018-09-26T06:37:21.546Z,5.77
2018-09-26T06:42:25.424Z,4.60
2018-09-26T06:47:29.355Z,3.10
2018-09-26T06:52:32.891Z,2.93
2018-09-26T06:57:36.668Z,4.13
2018-09-26T07:02:40.563Z,5.30
2018-09-26T07:07:44.436Z,4.57
2018-09-26T07:12:48.323Z,3.27
2018-09-26T07:17:52.183Z,3.07
2018-09-26T07:22:56.166Z,5.40
2018-09-26T07:28:00.400Z,3.20
2018-09-26T07:33:04.303Z,3.47
2018-09-26T07:38:08.199Z,2.63
2018-09-26T07:43:12.065Z,3.43
2018-09-26T07:48:15.979Z,4.53
2018-09-26T07:53:19.858Z,3.80
2018-09-26T07:58:24.192Z,7.03
2018-09-26T08:03:28.264Z,7.60
2018-09-26T08:08:32.223Z,3.67
2018-09-26T08:13:36.092Z,3.97
2018-09-26T08:18:40.299Z,2.50
2018-09-26T08:23:44.627Z,2.27
2018-09-26T08:28:48.444Z,4.43
2018-09-26T08:33:52.337Z,9.13
2018-09-26T08:38:56.258Z,3.27
2018-09-26T08:44:00.342Z,5.37
2018-09-26T08:49:04.172Z,5.10
2018-09-26T08:54:08.082Z,4.37
2018-09-26T08:59:11.965Z,2.50
2018-09-26T09:04:16.797Z,2.70
2018-09-26T09:09:20.592Z,2.90
2018-09-26T09:14:25.530Z,2.53
2018-09-26T09:19:29.800Z,1.83
2018-09-26T09:24:33.684Z,2.97
2018-09-26T09:29:38.274Z,3.80
2018-09-26T09:34:42.350Z,6.03
2018-09-26T09:39:46.239Z,2.00
2018-09-26T09:44:50.142Z,1.87
2018-09-26T09:49:54.076Z,1.67
2018-09-26T09:54:57.961Z,1.53
2018-09-26T10:00:01.837Z,2.20
2018-09-26T10:05:05.781Z,3.07
2018-09-26T10:10:09.640Z,3.37
2018-09-26T10:15:13.548Z,2.10
2018-09-26T10:20:17.474Z,2.40
2018-09-26T10:25:21.335Z,3.90
2018-09-26T10:30:25.201Z,3.17
2018-09-26T10:35:29.574Z,4.90
2018-09-26T10:40:33.463Z,1.93
2018-09-26T10:45:37.340Z,3.30
2018-09-26T10:50:41.205Z,2.70
2018-09-26T10:55:45.077Z,2.27
2018-09-26T11:00:48.950Z,2.70
2018-09-26T11:05:52.836Z,2.83
2018-09-26T11:10:56.735Z,3.53
2018-09-26T11:16:00.596Z,2.67
2018-09-26T11:21:04.495Z,2.47
2018-09-26T11:26:08.466Z,3.40
2018-09-26T11:31:12.305Z,3.57
2018-09-26T11:36:16.180Z,2.70
2018-09-26T11:41:20.104Z,3.53
2018-09-26T11:46:24.054Z,4.33
2018-09-26T11:51:27.890Z,2.07
2018-09-26T11:56:31.816Z,3.87
2018-09-26T12:01:35.805Z,2.40
2018-09-26T12:06:39.714Z,2.07
2018-09-26T12:11:43.948Z,1.83
2018-09-26T12:16:47.821Z,2.87
2018-09-26T12:21:51.912Z,2.73
2018-09-26T12:26:56.810Z,2.33
2018-09-26T12:32:00.722Z,1.97
2018-09-26T12:37:04.612Z,2.23
2018-09-26T12:42:08.589Z,3.17
2018-09-26T12:47:13.062Z,4.37
2018-09-26T12:52:17.009Z,3.27
2018-09-26T12:57:20.898Z,3.02
2018-09-26T13:02:24.889Z,2.83
2018-09-26T13:07:28.680Z,3.47
2018-09-26T13:12:32.598Z,3.65
2018-09-26T13:17:36.526Z,4.13
2018-09-26T13:22:40.689Z,3.02
2018-09-26T13:27:44.589Z,1.83
2018-09-26T13:32:48.461Z,2.63
2018-09-26T13:37:52.469Z,1.97
2018-09-26T13:42:56.340Z,3.67
2018-09-26T13:48:00.244Z,1.30
2018-09-26T13:53:04.133Z,2.87
2018-09-26T13:58:08.011Z,3.17
2018-09-26T14:03:11.906Z,3.17
2018-09-26T14:08:15.850Z,1.83
2018-09-26T14:13:19.733Z,3.33
2018-09-26T14:18:23.718Z,3.23
2018-09-26T14:23:27.666Z,2.03
2018-09-26T14:28:31.597Z,3.70
2018-09-26T14:33:36.182Z,3.37
2018-09-26T14:38:40.145Z,2.33
2018-09-26T14:43:44.190Z,1.73
2018-09-26T14:48:48.209Z,1.97
2018-09-26T14:53:52.250Z,1.82
2018-09-26T14:58:56.186Z,2.70
2018-09-26T15:04:00.378Z,2.17
2018-09-26T15:09:05.219Z,3.83
2018-09-26T15:14:09.329Z,4.23
2018-09-26T15:19:13.273Z,3.27
2018-09-26T15:24:17.285Z,2.33
2018-09-26T15:29:21.350Z,2.43
2018-09-26T15:34:25.431Z,3.33
2018-09-26T15:39:29.750Z,3.33
2018-09-26T15:44:33.694Z,4.03
2018-09-26T15:49:37.671Z,4.27
2018-09-26T15:54:43.322Z,2.57
2018-09-26T15:59:47.751Z,2.20
2018-09-26T16:04:51.652Z,3.93
2018-09-26T16:09:55.411Z,2.10
2018-09-26T16:14:58.946Z,2.43
2018-09-26T16:20:02.934Z,4.40
2018-09-26T16:25:06.547Z,3.77
2018-09-26T16:30:11.290Z,7.57
2018-09-26T16:35:14.891Z,8.60
2018-09-26T16:40:18.508Z,5.90
2018-09-26T16:45:22.147Z,9.20
2018-09-26T16:50:25.930Z,7.33
2018-09-26T16:55:29.563Z,5.23
2018-09-26T17:00:33.384Z,8.20
2018-09-26T17:05:37.562Z,4.33
2018-09-26T17:10:41.492Z,4.73
2018-09-26T17:15:48.232Z,6.13
2018-09-26T17:21:24.642Z,4.07
2018-09-26T17:26:29.127Z,5.00
2018-09-26T17:31:33.281Z,8.37
2018-09-26T17:36:38.332Z,10.97
2018-09-26T17:41:43.154Z,9.97
2018-09-26T17:46:48.602Z,11.57
2018-09-26T17:51:53.916Z,23.57
2018-09-26T17:56:57.911Z,22.67
2018-09-26T18:02:01.555Z,18.07
2018-09-26T18:07:05.174Z,13.93
2018-09-26T18:12:09.205Z,10.70
2018-09-26T18:17:13.537Z,22.07
2018-09-26T18:22:17.362Z,21.47
2018-09-26T18:27:22.696Z,23.27
2018-09-26T18:32:29.157Z,19.07
2018-09-26T18:37:34.670Z,22.03
2018-09-26T18:42:40.732Z,13.07
2018-09-26T18:47:44.473Z,11.23
2018-09-26T18:52:48.755Z,12.70
2018-09-26T18:57:53.390Z,8.30
2018-09-26T19:02:57.123Z,9.03
2018-09-26T19:08:00.851Z,16.67
2018-09-26T19:13:04.455Z,16.10
2018-09-26T19:18:08.013Z,25.13
2018-09-26T19:23:11.641Z,34.93
2018-09-26T19:28:15.201Z,36.03
2018-09-26T19:33:18.780Z,36.67
2018-09-26T19:38:22.692Z,26.70
2018-09-26T19:43:26.623Z,23.23
2018-09-26T19:48:30.606Z,23.67
2018-09-26T19:53:34.207Z,38.57
2018-09-26T19:58:37.725Z,45.30
2018-09-26T20:03:41.408Z,35.57
2018-09-26T20:08:44.915Z,26.33
2018-09-26T20:13:48.443Z,21.47
2018-09-26T20:18:52.003Z,18.40
2018-09-26T20:23:55.748Z,12.80
2018-09-26T20:28:59.813Z,6.80
2018-09-26T20:34:03.772Z,7.20
2018-09-26T20:39:08.199Z,5.23
2018-09-26T20:44:12.076Z,6.97
2018-09-26T20:49:16.193Z,10.10
2018-09-26T20:54:19.840Z,13.03
2018-09-26T20:59:23.385Z,14.80
2018-09-26T21:04:26.919Z,16.53
2018-09-26T21:09:30.714Z,11.87
2018-09-26T21:14:34.760Z,12.10
2018-09-26T21:19:38.652Z,15.67
2018-09-26T21:24:42.888Z,11.87
2018-09-26T21:29:46.901Z,14.37
2018-09-26T21:34:50.695Z,14.97
2018-09-26T21:39:54.292Z,15.07
2018-09-26T21:44:58.053Z,10.70
2018-09-26T21:50:02.027Z,6.80
2018-09-26T21:55:05.981Z,9.07
2018-09-26T22:00:09.868Z,8.50
2018-09-26T22:05:13.842Z,8.33
2018-09-26T22:10:17.716Z,11.27
2018-09-26T22:15:23.786Z,8.03
2018-09-26T22:20:27.647Z,9.20
2018-09-26T22:25:31.533Z,10.97
2018-09-26T22:30:35.409Z,9.37
2018-09-26T22:35:39.511Z,8.43
2018-09-26T22:40:43.400Z,7.87
2018-09-26T22:45:47.278Z,9.87
2018-09-26T22:50:51.151Z,8.17
2018-09-26T22:55:55.046Z,6.60
2018-09-26T23:00:58.990Z,9.17
2018-09-26T23:06:02.864Z,8.47
2018-09-26T23:11:06.751Z,6.73
2018-09-26T23:16:10.622Z,8.60
2018-09-26T23:21:14.525Z,5.70
2018-09-26T23:26:18.415Z,5.50
2018-09-26T23:31:22.304Z,8.83
2018-09-26T23:36:26.173Z,6.80
2018-09-26T23:41:30.060Z,9.43
2018-09-26T23:46:34.160Z,8.73
2018-09-26T23:51:38.045Z,8.10
2018-09-26T23:56:41.904Z,7.13
